• Join FlightAware (Why Join?)
  • Login
  • US Flag 
11:32AM EDT


 

Airport Tracker/Info


-or-


 

Live Flight TrackerFlight Track Log ✈ SWA1362 ✈ 27-Apr-2013 ✈ KLGA - KMDW

Flight Track Log - Related Links

Times and Time Zones

All times are in EDT time to prevent confusion due to time zone crossing. See the SWA1362 flight status page for this flight to view local times or setup timezone preferences in your user account.

Time Position Orientation Groundspeed Altitude Reporting Facility
EDT Latitude Longitude Course Direction KTS MPH feet Rate Location/Type
07:14AM 40.8000 -73.8667 275° West 163 188 1,900  Level New York TRACON
07:15AM 40.8500 -73.8833 346° North 210 242 4,500 2,760 Climbing New York TRACON
07:16AM 40.8667 -73.9500 288° West 242 278 7,500 3,000 Climbing New York TRACON
07:17AM 40.8667 -74.0500 270° West 277 319 10,200 2,400 Climbing New York TRACON
07:18AM 40.8833 -74.1667 281° West 336 387 12,100 2,400 Climbing New York TRACON
07:19AM 40.8833 -74.2833 270° West 365 420 15,000 2,700 Climbing New York TRACON
07:20AM 40.8405 -74.5000 275° West  Level FlightAware Approximate
07:20AM 40.8858 -74.3778 272° West 377 434 16,900  Level New York Center
07:21AM 40.8936 -74.5289 274° West 377 434 17,100 60 Climbing New York Center
07:22AM 40.8978 -74.6500 273° West 370 426 17,100  Level New York Center
07:23AM 40.8992 -74.8011 271° West 370 426 17,100 420 Level New York Center
07:24AM 40.8822 -74.9264 260° West 376 433 18,000 1,680 Climbing New York Center
07:25AM 40.8608 -75.0622 258° West 381 438 20,600 2,460 Climbing New York Center
07:26AM 40.8367 -75.2033 257° West 396 456 23,000 2,220 Climbing New York Center
07:27AM 40.8125 -75.3444 257° West 401 461 25,100 1,920 Climbing New York Center
07:28AM 40.7881 -75.4933 258° West 411 473 26,900 1,380 Climbing New York Center
07:29AM 40.7631 -75.6453 258° West 417 480 28,000 960 Climbing New York Center
07:30AM 40.7400 -75.7969 259° West 428 493 28,900 1,500 Climbing New York Center
07:31AM 40.7128 -75.9456 256° West 428 493 31,000 1,860 Climbing New York Center
07:32AM 40.6894 -76.0944 258° West 422 486 32,700 1,860 Climbing New York Center
07:33AM 40.6683 -76.2378 259° West 416 479 34,700 1,620 Climbing New York Center
07:34AM 40.6828 -76.3756 278° West 385 443 36,000 600 Climbing New York Center
07:35AM 40.7058 -76.5064 283° West 385 443 36,000  Level New York Center
07:36AM 40.7242 -76.6419 280° West 385 443 36,000  Level New York Center
07:37AM 40.7444 -76.7781 281° West 380 437 36,000  Level New York Center
07:38AM 40.7625 -76.9111 280° West 375 432 36,000  Level New York Center
07:39AM 40.7825 -77.0472 281° West 375 432 36,000  Level New York Center
07:40AM 40.8022 -77.1833 281° West 375 432 36,000  Level New York Center
07:41AM 40.8219 -77.3197 281° West 375 432 36,000  Level New York Center
07:43AM 40.8544 -77.5467 281° West 394 453 36,000  Level Cleveland Center
07:44AM 40.8725 -77.6833 280° West 389 448 36,000  Level Cleveland Center
07:45AM 40.8906 -77.8197 280° West 389 448 36,000  Level Cleveland Center
07:46AM 40.9106 -77.9564 281° West 383 441 36,000  Level Cleveland Center
07:47AM 40.9258 -78.0906 279° West 383 441 36,000  Level Cleveland Center
07:48AM 40.9456 -78.2300 281° West 389 448 36,000  Level Cleveland Center
07:49AM 40.9633 -78.3833 279° West 389 448 36,000  Level Cleveland Center
07:50AM 40.9803 -78.5203 279° West 389 448 36,000  Level Cleveland Center
07:51AM 40.9994 -78.6600 280° West 389 448 36,000  Level Cleveland Center
07:52AM 41.0142 -78.7972 278° West 389 448 36,000  Level Cleveland Center
07:53AM 41.0308 -78.9372 279° West 389 448 36,000  Level Cleveland Center
07:54AM 41.0453 -79.0633 279° West 389 448 36,000  Level Cleveland Center
07:55AM 41.0617 -79.2006 279° West 389 448 36,000  Level Cleveland Center
07:56AM 41.0778 -79.3408 279° West 389 448 36,000  Level Cleveland Center
07:57AM 41.0936 -79.4783 279° West 389 448 36,000  Level Cleveland Center
07:58AM 41.1075 -79.6131 278° West 389 448 36,000  Level Cleveland Center
07:59AM 41.1253 -79.7533 280° West 389 448 36,000  Level Cleveland Center
08:00AM 41.1367 -79.8967 276° West 389 448 36,000  Level Cleveland Center
08:01AM 41.1539 -80.0317 280° West 384 442 36,000  Level Cleveland Center
08:02AM 41.1672 -80.1694 277° West 384 442 36,000  Level Cleveland Center
08:03AM 41.1822 -80.3128 278° West 384 442 36,000  Level Cleveland Center
08:04AM 41.1969 -80.4672 277° West 389 448 36,000  Level Cleveland Center
08:05AM 41.2117 -80.6053 278° West 389 448 36,000  Level Cleveland Center
08:06AM 41.2239 -80.7461 277° West 389 448 36,000  Level Cleveland Center
08:07AM 41.2383 -80.8869 278° West 389 448 36,000  Level Cleveland Center
08:08AM 41.2525 -81.0222 278° West 389 448 36,000  Level Cleveland Center
08:09AM 41.2664 -81.1633 278° West 389 448 36,000  Level Cleveland Center
08:10AM 41.2803 -81.3069 277° West 389 448 36,000  Level Cleveland Center
08:11AM 41.2919 -81.4317 277° West 389 448 36,000  Level Cleveland Center
08:12AM 41.3075 -81.5700 279° West 389 448 36,000  Level Cleveland Center
08:13AM 41.3186 -81.7139 276° West 389 448 36,000  Level Cleveland Center
08:14AM 41.3317 -81.8525 277° West 389 448 36,000  Level Cleveland Center
08:15AM 41.3447 -81.9936 277° West 389 448 36,000  Level Cleveland Center
08:16AM 41.3572 -82.1572 276° West 397 457 36,000  Level Cleveland Center
08:17AM 41.3656 -82.3014 274° West 405 466 36,000  Level Cleveland Center
08:18AM 41.3736 -82.4397 274° West 394 453 36,000  Level Cleveland Center
08:19AM 41.3817 -82.5867 274° West 394 453 36,000  Level Cleveland Center
08:20AM 41.3878 -82.7142 274° West 388 447 36,000  Level Cleveland Center
08:21AM 41.3956 -82.8531 274° West 388 447 36,000  Level Cleveland Center
08:22AM 41.4031 -82.9917 274° West 388 447 36,000  Level Cleveland Center
08:23AM 41.4103 -83.1358 274° West 388 447 36,000  Level Cleveland Center
08:24AM 41.4194 -83.2886 275° West 388 447 36,000  Level Cleveland Center
08:25AM 41.4242 -83.4272 273° West 388 447 36,000  Level Cleveland Center
08:26AM 41.4308 -83.5744 274° West 388 447 36,000  Level Cleveland Center
08:27AM 41.4397 -83.7161 275° West 388 447 36,000  Level Cleveland Center
08:28AM 41.4461 -83.8603 273° West 388 447 36,000  Level Cleveland Center
08:29AM 41.4503 -84.0019 272° West 388 447 36,000 -420 Level Cleveland Center
08:31AM 41.4675 -84.3089 274° West 388 447 34,800 -1,020 Descending Chicago Center
08:32AM 41.4722 -84.4492 273° West 381 438 32,600 -2,160 Descending Chicago Center
08:33AM 41.4797 -84.6203 273° West 384 442 30,400 -1,320 Descending Chicago Center
08:34AM 41.4850 -84.7717 273° West 403 464 30,000 -300 Descending Chicago Center
08:35AM 41.4914 -84.9325 273° West 428 493 29,800 -660 Descending Chicago Center
08:36AM 41.4967 -85.0953 273° West 437 503 28,700 -1,080 Descending Chicago Center
08:37AM 41.5017 -85.2556 272° West 433 498 27,700 -1,380 Descending Chicago Center
08:38AM 41.5067 -85.4186 272° West 431 496 26,000 -1,980 Descending Chicago Center
08:39AM 41.5117 -85.5744 273° West 413 475 23,700 -2,220 Descending Chicago Center
08:40AM 41.5158 -85.7236 272° West 404 465 21,500 -2,100 Descending Chicago Center
08:41AM 41.5203 -85.8647 272° West 388 447 19,400 -1,980 Descending Chicago Center
08:42AM 41.5236 -86.0003 272° West 372 428 17,500 -2,160 Descending Chicago Center
08:43AM 41.5244 -86.1369 271° West 368 423 15,100 -2,220 Descending Chicago Center
08:44AM 41.5233 -86.2697 269° West 359 413 13,000 -1,980 Descending Chicago Center
08:45AM 41.5222 -86.4247 270° West 349 402 11,100 -960 Descending Chicago Center
08:46AM 41.5239 -86.5506 271° West 341 392 11,100 -540 Level Chicago Center
08:47AM 41.5208 -86.6733 268° West 333 383 10,100 -840 Descending Chicago Center
08:48AM 41.5200 -86.7850 269° West 318 366 9,400 -840 Descending Chicago Center
08:49AM 41.5217 -86.8928 271° West 299 344 8,400 -1,260 Descending Chicago Center
08:50AM 41.5178 -86.9953 267° West 283 326 6,900 -1,200 Descending Chicago Center
08:51AM 41.5392 -87.1150 283° West 281 323 6,000 -600 Descending Chicago Center
08:52AM 41.5500 -87.1667 286° West 277 319 6,000 -240 Level Chicago TRACON
08:53AM 41.5667 -87.2500 285° West 275 316 5,700 -900 Descending Chicago TRACON
08:54AM 41.6000 -87.3500 294° West 265 305 4,400 -1,080 Descending Chicago TRACON
08:55AM 41.6150 -87.3972 293° West 269 310 4,000 -240 Descending Chicago Center
08:56AM 41.6378 -87.4883 289° West 265 305 4,000  Level Chicago Center
08:57AM 41.6603 -87.5700 290° West 253 291 4,000 -600 Level Chicago Center
08:58AM 41.7000 -87.6333 310° West 208 239 2,800 -1,020 Descending Chicago TRACON
08:58AM 41.7500 -87.6667 334° Northwest 182 209 2,100 -540 Descending Chicago TRACON
08:59AM 41.7833 -87.6667 360° North 173 199 1,800 -360 Descending Chicago TRACON
09:00AM 41.8167 -87.6833 340° North 152 175 1,500 -420 Descending Chicago TRACON
09:01AM 41.8000 -87.7167 236° Southwest 143 165 1,100 -480 Descending Chicago TRACON
09:04AM 41.7833 -87.7500 340° North  Level FlightAware Approximate